createdAt,value
2018-12-18T00:02:34.593Z,43.53
2018-12-18T00:05:17.890Z,43.23
2018-12-18T00:07:53.105Z,37.43
2018-12-18T00:10:34.409Z,42.60
2018-12-18T00:13:09.897Z,47.63
2018-12-18T00:15:45.717Z,39.53
2018-12-18T00:18:21.529Z,34.83
2018-12-18T00:20:57.460Z,37.57
2018-12-18T00:23:33.318Z,38.17
2018-12-18T00:26:09.144Z,39.83
2018-12-18T00:28:45.900Z,35.50
2018-12-18T00:31:22.069Z,35.97
2018-12-18T00:33:57.778Z,37.70
2018-12-18T00:36:33.564Z,35.10
2018-12-18T00:39:13.916Z,36.83
2018-12-18T00:41:51.402Z,36.13
2018-12-18T00:44:27.158Z,42.83
2018-12-18T00:47:03.127Z,38.73
2018-12-18T00:49:38.937Z,44.73
2018-12-18T00:52:14.850Z,41.97
2018-12-18T00:54:52.484Z,39.73
2018-12-18T00:57:28.553Z,42.53
2018-12-18T01:00:05.925Z,43.60
2018-12-18T01:02:41.337Z,42.80
2018-12-18T01:05:17.742Z,44.20
2018-12-18T01:07:53.902Z,44.73
2018-12-18T01:10:29.629Z,43.40
2018-12-18T01:13:05.425Z,43.83
2018-12-18T01:15:41.261Z,40.40
2018-12-18T01:18:16.980Z,43.73
2018-12-18T01:20:52.964Z,40.13
2018-12-18T01:23:29.001Z,39.80
2018-12-18T01:26:04.666Z,39.63
2018-12-18T01:28:40.878Z,40.20
2018-12-18T01:31:16.630Z,39.50
2018-12-18T01:33:52.373Z,44.83
2018-12-18T01:36:28.144Z,40.57
2018-12-18T01:39:05.686Z,36.10
2018-12-18T01:41:41.005Z,39.97
2018-12-18T01:44:16.893Z,39.10
2018-12-18T01:46:52.702Z,38.43
2018-12-18T01:49:28.573Z,37.90
2018-12-18T01:52:04.294Z,38.43
2018-12-18T01:54:40.045Z,35.47
2018-12-18T01:57:15.809Z,37.77
2018-12-18T01:59:52.144Z,34.83
2018-12-18T02:19:07.148Z,35.53
2018-12-18T02:21:43.326Z,32.87
2018-12-18T02:24:19.317Z,34.27
2018-12-18T02:26:55.239Z,34.07
2018-12-18T02:29:31.077Z,32.83
2018-12-18T02:32:06.946Z,34.80
2018-12-18T02:34:42.863Z,34.30
2018-12-18T02:37:18.716Z,32.87
2018-12-18T02:39:55.573Z,34.10
2018-12-18T02:42:31.389Z,31.20
2018-12-18T02:45:07.448Z,30.13
2018-12-18T02:47:42.975Z,29.97
2018-12-18T02:50:18.927Z,30.87
2018-12-18T02:52:54.868Z,28.17
2018-12-18T02:55:30.686Z,27.63
2018-12-18T02:58:06.485Z,30.53
2018-12-18T03:00:42.265Z,26.87
2018-12-18T03:03:18.508Z,27.10
2018-12-18T03:05:54.147Z,26.47
2018-12-18T03:08:30.106Z,26.47
2018-12-18T03:11:05.882Z,27.20
2018-12-18T03:13:41.862Z,26.20
2018-12-18T03:16:17.986Z,25.60
2018-12-18T03:18:53.755Z,26.10
2018-12-18T03:21:29.734Z,24.17
2018-12-18T03:24:05.510Z,22.10
2018-12-18T03:26:41.322Z,24.67
2018-12-18T03:29:17.104Z,24.77
2018-12-18T03:31:58.205Z,25.33
2018-12-18T03:34:33.985Z,24.10
2018-12-18T03:37:09.857Z,22.60
2018-12-18T03:39:45.698Z,22.07
2018-12-18T03:42:21.768Z,22.83
2018-12-18T03:44:57.522Z,22.00
2018-12-18T03:47:33.383Z,22.30
2018-12-18T03:50:09.304Z,23.93
2018-12-18T03:52:45.043Z,24.50
2018-12-18T03:55:21.121Z,23.37
2018-12-18T03:57:59.909Z,23.77
2018-12-18T04:00:35.273Z,19.63
2018-12-18T04:03:11.542Z,20.50
2018-12-18T04:05:47.419Z,21.10
2018-12-18T04:08:23.358Z,19.33
2018-12-18T04:10:59.210Z,21.47
2018-12-18T04:13:36.130Z,20.87
2018-12-18T04:16:11.871Z,20.23
2018-12-18T04:18:47.725Z,21.40
2018-12-18T04:21:23.513Z,22.07
2018-12-18T04:23:59.333Z,20.90
2018-12-18T04:26:35.386Z,19.47
2018-12-18T04:29:11.322Z,19.37
2018-12-18T04:31:46.902Z,20.87
2018-12-18T04:34:23.028Z,21.03
2018-12-18T04:36:58.730Z,20.97
2018-12-18T04:39:34.675Z,19.27
2018-12-18T04:42:10.549Z,19.40
2018-12-18T04:44:46.630Z,21.67
2018-12-18T04:47:22.287Z,20.60
2018-12-18T04:49:58.174Z,19.83
2018-12-18T04:52:33.971Z,20.47
2018-12-18T04:55:10.045Z,20.80
2018-12-18T04:57:45.860Z,20.03
2018-12-18T05:00:21.591Z,22.50
2018-12-18T05:02:57.262Z,20.17
2018-12-18T05:05:33.074Z,19.03
2018-12-18T05:08:08.966Z,19.83
2018-12-18T05:10:44.895Z,20.90
2018-12-18T05:13:20.815Z,20.20
2018-12-18T05:15:56.529Z,18.23
2018-12-18T05:18:32.318Z,18.00
2018-12-18T05:21:08.401Z,18.90
2018-12-18T05:23:44.286Z,18.87
2018-12-18T05:26:20.084Z,17.73
2018-12-18T05:28:55.766Z,18.47
2018-12-18T05:31:31.682Z,19.30
2018-12-18T05:34:07.637Z,19.47
2018-12-18T05:36:43.595Z,18.10
2018-12-18T05:39:19.085Z,18.33
2018-12-18T05:41:54.972Z,20.17
2018-12-18T05:44:30.693Z,18.60
2018-12-18T05:47:06.500Z,18.80
2018-12-18T05:49:42.535Z,17.40
2018-12-18T05:52:18.245Z,18.23
2018-12-18T05:54:56.823Z,17.37
2018-12-18T05:57:32.983Z,18.73
2018-12-18T06:00:08.934Z,19.73
2018-12-18T06:02:45.423Z,18.67
2018-12-18T06:05:29.094Z,17.03
2018-12-18T06:08:05.350Z,17.43
2018-12-18T06:10:41.242Z,16.47
2018-12-18T06:13:16.926Z,16.43
2018-12-18T06:15:52.918Z,18.07
2018-12-18T06:18:28.756Z,17.47
2018-12-18T06:21:04.713Z,18.30
2018-12-18T06:23:40.429Z,16.50
2018-12-18T06:26:16.269Z,15.17
2018-12-18T06:28:52.183Z,16.03
2018-12-18T06:31:28.044Z,17.43
2018-12-18T06:34:04.099Z,17.53
2018-12-18T06:36:40.367Z,16.03
2018-12-18T06:39:15.992Z,16.00
2018-12-18T06:41:51.816Z,16.30
2018-12-18T06:44:27.813Z,16.40
2018-12-18T06:47:03.860Z,16.13
2018-12-18T06:49:39.224Z,17.27
2018-12-18T06:52:14.930Z,15.50
2018-12-18T06:54:50.765Z,17.03
2018-12-18T06:57:26.664Z,16.37
2018-12-18T07:00:02.529Z,17.20
2018-12-18T07:02:39.666Z,16.73
2018-12-18T07:05:16.952Z,16.93
2018-12-18T07:07:57.329Z,16.57
2018-12-18T07:10:31.066Z,17.33
2018-12-18T07:13:06.900Z,15.43
2018-12-18T07:15:46.012Z,16.47
2018-12-18T07:18:23.261Z,16.10
2018-12-18T07:21:00.838Z,14.07
2018-12-18T07:23:39.387Z,15.47
2018-12-18T07:26:16.075Z,13.23
2018-12-18T07:28:52.699Z,15.00
2018-12-18T07:31:29.458Z,12.23
2018-12-18T07:34:05.864Z,8.80
2018-12-18T07:36:41.469Z,15.10
2018-12-18T07:39:18.274Z,14.53
2018-12-18T07:41:54.091Z,14.10
2018-12-18T07:44:29.773Z,14.73
2018-12-18T07:47:05.545Z,13.90
2018-12-18T07:49:41.313Z,12.47
2018-12-18T07:52:17.023Z,14.70
2018-12-18T07:54:52.846Z,12.80
2018-12-18T07:57:28.730Z,12.97
2018-12-18T08:00:05.414Z,14.47
2018-12-18T08:02:41.610Z,13.43
2018-12-18T08:05:17.850Z,14.53
2018-12-18T08:07:53.314Z,14.07
2018-12-18T08:10:29.193Z,14.00
2018-12-18T08:13:05.134Z,14.17
2018-12-18T08:15:41.050Z,13.40
2018-12-18T08:18:16.638Z,13.97
2018-12-18T08:20:52.428Z,13.20
2018-12-18T08:23:28.294Z,12.27
2018-12-18T08:26:04.401Z,13.70
2018-12-18T08:28:40.050Z,12.83
2018-12-18T08:31:15.912Z,12.97
2018-12-18T10:12:55.777Z,11.70
2018-12-18T10:15:31.272Z,11.47
2018-12-18T10:18:07.298Z,10.03
2018-12-18T10:20:43.069Z,11.93
2018-12-18T10:23:19.782Z,9.17
2018-12-18T10:25:58.340Z,10.10
2018-12-18T10:28:34.916Z,9.63
2018-12-18T10:31:12.741Z,10.40
2018-12-18T10:33:48.418Z,9.50
2018-12-18T10:36:24.362Z,10.80
2018-12-18T10:39:00.120Z,10.13
2018-12-18T10:41:36.001Z,9.60
2018-12-18T10:44:12.294Z,8.10
2018-12-18T10:46:48.494Z,11.20
2018-12-18T10:49:24.541Z,8.37
2018-12-18T10:52:00.364Z,11.17
2018-12-18T10:54:36.234Z,10.63
2018-12-18T10:57:12.325Z,11.07
2018-12-18T10:59:47.977Z,11.03
2018-12-18T11:02:24.031Z,11.80
2018-12-18T11:07:58.248Z,10.73
2018-12-18T11:10:34.060Z,12.47
2018-12-18T11:13:14.823Z,11.40
2018-12-18T11:15:50.185Z,11.87
2018-12-18T11:18:25.863Z,11.93
2018-12-18T11:21:01.861Z,9.90
2018-12-18T11:23:37.439Z,7.83
2018-12-18T11:26:13.557Z,12.93
2018-12-18T11:28:49.565Z,13.40
2018-12-18T11:31:25.999Z,8.67
2018-12-18T11:34:01.614Z,13.00
2018-12-18T11:36:37.224Z,12.17
2018-12-18T11:39:13.259Z,12.27
2018-12-18T11:41:49.575Z,10.47
2018-12-18T11:44:24.903Z,12.57
2018-12-18T11:47:00.791Z,8.10
2018-12-18T11:49:36.573Z,11.87
2018-12-18T11:52:12.278Z,10.80
2018-12-18T11:54:47.880Z,9.73
2018-12-18T11:57:24.093Z,8.80
2018-12-18T11:59:59.677Z,10.30
2018-12-18T12:02:35.439Z,10.50
2018-12-18T12:05:13.595Z,10.23
2018-12-18T12:07:49.697Z,9.20
2018-12-18T12:10:25.646Z,9.07
2018-12-18T12:13:01.600Z,8.80
2018-12-18T12:15:37.516Z,7.80
2018-12-18T12:18:13.342Z,7.23
2018-12-18T12:20:48.905Z,7.47
2018-12-18T12:23:24.893Z,7.50
2018-12-18T12:26:05.007Z,7.20
2018-12-18T12:28:40.593Z,7.37
2018-12-18T12:31:15.693Z,7.10
2018-12-18T12:33:51.749Z,7.60
2018-12-18T12:36:29.762Z,6.77
2018-12-18T12:39:08.317Z,6.07
2018-12-18T12:41:44.345Z,6.60
2018-12-18T12:44:20.374Z,5.87
2018-12-18T12:46:56.194Z,6.20
2018-12-18T12:49:43.978Z,5.73
2018-12-18T12:52:20.243Z,6.57
2018-12-18T12:54:56.033Z,6.90
2018-12-18T12:57:32.137Z,7.00
2018-12-18T13:00:08.486Z,6.87
2018-12-18T13:02:43.704Z,7.20
2018-12-18T13:05:19.528Z,7.17
2018-12-18T13:07:56.291Z,6.50
2018-12-18T13:10:32.468Z,6.80
2018-12-18T13:13:08.603Z,7.03
2018-12-18T13:15:44.949Z,7.13
2018-12-18T13:18:20.653Z,6.63
2018-12-18T13:20:56.570Z,6.93
2018-12-18T13:23:32.433Z,6.30
2018-12-18T13:26:08.355Z,5.87
2018-12-18T13:28:44.043Z,5.97
2018-12-18T13:31:19.821Z,5.87
2018-12-18T13:33:55.465Z,5.77
2018-12-18T13:36:31.147Z,6.03
2018-12-18T13:39:07.556Z,6.30
2018-12-18T13:41:43.720Z,5.90
2018-12-18T13:44:20.202Z,6.20
2018-12-18T13:46:55.796Z,5.87
2018-12-18T13:49:31.421Z,6.27
2018-12-18T13:52:07.210Z,6.37
2018-12-18T13:54:43.002Z,5.83
2018-12-18T13:57:19.034Z,5.63
2018-12-18T13:59:55.079Z,5.67
2018-12-18T14:02:30.822Z,6.50
2018-12-18T14:05:06.516Z,6.63
2018-12-18T14:07:42.313Z,6.90
2018-12-18T14:10:18.236Z,6.17
2018-12-18T14:12:57.260Z,6.67
2018-12-18T14:15:34.133Z,6.00
2018-12-18T14:18:09.885Z,6.67
2018-12-18T14:20:46.346Z,6.40
2018-12-18T14:23:49.276Z,6.30
2018-12-18T14:26:29.598Z,6.90
2018-12-18T14:29:06.563Z,6.80
2018-12-18T14:31:43.463Z,7.50
2018-12-18T14:34:26.166Z,6.90
2018-12-18T14:37:05.290Z,6.63
2018-12-18T14:39:41.926Z,7.17
2018-12-18T14:42:29.105Z,6.40
2018-12-18T14:45:11.001Z,6.67
2018-12-18T14:51:07.451Z,5.67
2018-12-18T14:53:45.716Z,6.13
2018-12-18T14:56:22.097Z,6.67
2018-12-18T14:58:58.001Z,7.23
2018-12-18T15:01:34.033Z,7.10
2018-12-18T15:04:09.207Z,7.03
2018-12-18T15:06:45.465Z,7.57
2018-12-18T15:09:20.733Z,7.00
2018-12-18T15:11:56.475Z,7.40
2018-12-18T15:14:32.162Z,6.73
2018-12-18T15:17:08.314Z,7.90
2018-12-18T15:19:44.253Z,7.70
2018-12-18T15:22:20.263Z,8.23
2018-12-18T15:24:56.313Z,7.87
2018-12-18T15:27:31.809Z,8.20
2018-12-18T15:30:09.724Z,7.70
2018-12-18T15:32:45.625Z,7.43
2018-12-18T15:35:21.630Z,7.23
2018-12-18T15:37:57.592Z,7.33
2018-12-18T15:40:33.849Z,6.90
2018-12-18T15:43:10.668Z,7.50
2018-12-18T15:45:46.238Z,7.40
2018-12-18T15:48:22.748Z,7.00
2018-12-18T15:50:58.491Z,7.40
2018-12-18T15:57:30.550Z,4.77
2018-12-18T16:13:57.084Z,6.27
2018-12-18T16:16:33.225Z,6.30
2018-12-18T16:19:08.945Z,7.30
2018-12-18T16:21:45.011Z,6.50
2018-12-18T16:24:20.949Z,6.10
2018-12-18T16:26:56.875Z,5.80
2018-12-18T16:29:32.700Z,6.50
2018-12-18T16:32:08.538Z,5.80
2018-12-18T16:34:44.414Z,6.10
2018-12-18T16:37:23.185Z,5.63
2018-12-18T16:39:58.188Z,6.80
2018-12-18T16:42:33.955Z,6.87
2018-12-18T16:45:09.827Z,5.80
2018-12-18T16:47:46.433Z,6.30
2018-12-18T16:50:26.548Z,5.00
2018-12-18T16:53:00.285Z,5.23
2018-12-18T16:55:36.199Z,5.90
2018-12-18T16:58:12.160Z,5.07
2018-12-18T17:00:48.183Z,5.63
2018-12-18T17:03:24.294Z,5.20
2018-12-18T17:06:00.204Z,6.17
2018-12-18T17:08:36.063Z,5.20
2018-12-18T17:11:12.017Z,4.90
2018-12-18T17:13:47.954Z,5.27
2018-12-18T17:16:23.598Z,4.13
2018-12-18T17:18:59.412Z,4.83
2018-12-18T17:21:35.304Z,4.70
2018-12-18T17:24:10.923Z,5.47
2018-12-18T17:26:46.815Z,3.57
2018-12-18T17:29:22.620Z,5.17
2018-12-18T17:31:58.479Z,5.07
2018-12-18T17:34:34.689Z,5.27
2018-12-18T17:37:10.425Z,5.80
2018-12-18T17:39:47.322Z,5.80
2018-12-18T17:42:23.189Z,5.63
2018-12-18T17:44:59.179Z,5.13
2018-12-18T17:47:35.031Z,5.93
2018-12-18T17:50:11.140Z,5.43
2018-12-18T17:52:46.862Z,5.40
2018-12-18T17:55:22.766Z,5.93
2018-12-18T17:57:59.022Z,5.80
2018-12-18T18:00:34.913Z,6.53
2018-12-18T18:03:10.317Z,6.00
2018-12-18T18:05:45.968Z,6.50
2018-12-18T18:08:21.874Z,7.40
2018-12-18T18:10:58.569Z,7.10
2018-12-18T18:13:34.719Z,6.80
2018-12-18T18:16:10.582Z,7.17
2018-12-18T18:18:46.507Z,7.20
2018-12-18T18:21:22.028Z,6.70
2018-12-18T18:23:57.763Z,7.57
2018-12-18T18:26:33.626Z,7.37
2018-12-18T18:29:09.577Z,6.10
2018-12-18T18:31:45.362Z,6.57
2018-12-18T18:34:21.076Z,7.10
2018-12-18T18:36:57.169Z,7.23
2018-12-18T18:39:33.694Z,7.17
2018-12-18T18:42:24.537Z,6.87
2018-12-18T18:45:13.052Z,6.63
2018-12-18T18:48:04.450Z,7.60
2018-12-18T18:50:57.612Z,7.37
2018-12-18T18:53:50.747Z,6.90
2018-12-18T18:56:42.706Z,6.70
2018-12-18T18:59:31.434Z,7.00
2018-12-18T19:02:23.697Z,6.77
2018-12-18T19:05:18.318Z,5.33
2018-12-18T19:08:09.801Z,5.87
2018-12-18T19:10:54.983Z,5.67
2018-12-18T19:13:45.762Z,5.50
2018-12-18T19:16:28.117Z,6.70
2018-12-18T19:19:18.801Z,5.77
2018-12-18T19:21:56.861Z,4.97
2018-12-18T19:24:32.622Z,5.37
2018-12-18T19:27:08.504Z,6.43
2018-12-18T19:29:44.526Z,5.70
2018-12-18T19:32:20.350Z,6.20
2018-12-18T19:34:55.995Z,5.90
2018-12-18T19:37:31.841Z,5.50
2018-12-18T19:40:08.018Z,5.20
2018-12-18T19:42:43.702Z,5.07
2018-12-18T19:45:19.493Z,5.40
2018-12-18T19:47:56.307Z,6.10
2018-12-18T19:50:32.146Z,5.33
2018-12-18T19:53:07.829Z,5.73
2018-12-18T19:55:44.566Z,5.97
2018-12-18T19:58:19.871Z,5.97
2018-12-18T20:00:55.522Z,5.43
2018-12-18T20:03:36.294Z,5.27
2018-12-18T20:06:13.310Z,5.70
2018-12-18T20:08:49.243Z,5.57
2018-12-18T20:11:25.530Z,5.83
2018-12-18T20:14:01.471Z,5.90
2018-12-18T20:16:36.853Z,5.57
2018-12-18T20:19:12.928Z,3.83
2018-12-18T20:21:48.478Z,5.73
2018-12-18T20:24:24.374Z,4.77
2018-12-18T20:27:00.214Z,5.70
2018-12-18T20:29:36.208Z,6.13
2018-12-18T20:32:13.250Z,5.47
2018-12-18T20:34:48.730Z,5.40
2018-12-18T20:37:24.746Z,5.23
2018-12-18T20:40:00.630Z,5.63
2018-12-18T20:42:36.531Z,5.97
2018-12-18T20:45:12.391Z,5.40
2018-12-18T20:47:48.045Z,5.23
2018-12-18T20:50:24.082Z,5.70
2018-12-18T20:52:59.836Z,5.73
2018-12-18T20:55:35.530Z,5.47
2018-12-18T20:58:11.963Z,6.10
2018-12-18T21:00:47.139Z,5.77
2018-12-18T21:03:23.013Z,7.10
2018-12-18T21:05:59.585Z,5.97
2018-12-18T21:08:35.789Z,6.27
2018-12-18T21:11:11.925Z,6.43
2018-12-18T21:13:47.578Z,6.30
2018-12-18T21:16:23.416Z,6.70
2018-12-18T21:18:59.532Z,6.20
2018-12-18T21:21:35.549Z,7.27
2018-12-18T21:24:11.564Z,6.60
2018-12-18T21:26:47.280Z,6.40
2018-12-18T21:29:23.092Z,6.17
2018-12-18T21:31:58.974Z,6.83
2018-12-18T21:34:34.782Z,6.40
2018-12-18T21:37:10.604Z,6.83
2018-12-18T21:39:46.405Z,6.03
2018-12-18T21:42:22.419Z,7.00
2018-12-18T21:44:58.334Z,7.03
2018-12-18T21:47:34.029Z,7.97
2018-12-18T21:50:09.827Z,7.10
2018-12-18T21:52:45.643Z,8.63
2018-12-18T21:55:21.593Z,7.93
2018-12-18T21:57:58.533Z,8.10
2018-12-18T22:00:34.325Z,5.90
2018-12-18T22:03:10.287Z,7.63
2018-12-18T22:05:46.157Z,8.60
2018-12-18T22:08:22.062Z,7.27
2018-12-18T22:10:57.694Z,8.57
2018-12-18T22:13:33.565Z,8.40
2018-12-18T22:16:09.426Z,8.87
2018-12-18T22:18:45.291Z,9.67
2018-12-18T22:21:20.953Z,8.27
2018-12-18T22:23:56.797Z,9.10
2018-12-18T22:26:32.599Z,9.13
2018-12-18T22:29:08.468Z,10.07
2018-12-18T22:31:44.297Z,9.97
2018-12-18T22:34:20.253Z,9.00
2018-12-18T22:36:56.251Z,10.03
2018-12-18T22:39:32.135Z,9.43
2018-12-18T22:42:08.025Z,9.97
2018-12-18T22:44:43.954Z,10.77
2018-12-18T22:47:19.666Z,10.33
2018-12-18T22:49:55.364Z,10.37
2018-12-18T22:52:31.362Z,9.83
2018-12-18T22:55:07.467Z,9.97
2018-12-18T22:57:43.193Z,9.80
2018-12-18T23:00:24.479Z,9.90
2018-12-18T23:03:01.692Z,9.80
2018-12-18T23:05:37.621Z,8.43
2018-12-18T23:08:13.686Z,9.83
2018-12-18T23:10:49.679Z,9.97
2018-12-18T23:13:25.421Z,9.70
2018-12-18T23:16:01.279Z,8.27
2018-12-18T23:18:36.882Z,8.43
2018-12-18T23:21:12.599Z,8.30
2018-12-18T23:23:48.654Z,8.57
2018-12-18T23:26:24.496Z,7.50
2018-12-18T23:29:00.356Z,8.97
2018-12-18T23:31:36.317Z,9.37
2018-12-18T23:34:13.110Z,8.93
2018-12-18T23:36:49.046Z,8.87
2018-12-18T23:39:24.904Z,7.80
2018-12-18T23:42:01.153Z,8.63
2018-12-18T23:44:36.762Z,8.73
2018-12-18T23:47:12.539Z,7.47
2018-12-18T23:49:48.398Z,7.40
2018-12-18T23:52:24.220Z,7.70
2018-12-18T23:54:59.867Z,8.50
2018-12-18T23:57:35.942Z,7.63
